sensor_id;sensor_type;location;lat;lon;timestamp;P1;durP1;ratioP1;P2;durP2;ratioP2
64885;SDS011;51514;52.206;5.114;2023-02-05T00:00:49;42.95;;;24.42;;
64885;SDS011;51514;52.206;5.114;2023-02-05T00:03:15;38.75;;;23.35;;
64885;SDS011;51514;52.206;5.114;2023-02-05T00:05:40;38.45;;;23.83;;
64885;SDS011;51514;52.206;5.114;2023-02-05T00:08:06;42.47;;;22.98;;
64885;SDS011;51514;52.206;5.114;2023-02-05T00:10:32;43.20;;;24.83;;
64885;SDS011;51514;52.206;5.114;2023-02-05T00:12:57;43.97;;;24.52;;
64885;SDS011;51514;52.206;5.114;2023-02-05T00:15:22;43.45;;;23.17;;
64885;SDS011;51514;52.206;5.114;2023-02-05T00:17:48;45.08;;;24.95;;
64885;SDS011;51514;52.206;5.114;2023-02-05T00:20:13;38.25;;;24.02;;
64885;SDS011;51514;52.206;5.114;2023-02-05T00:22:39;43.15;;;23.63;;
64885;SDS011;51514;52.206;5.114;2023-02-05T00:25:04;41.80;;;23.88;;
64885;SDS011;51514;52.206;5.114;2023-02-05T00:27:30;41.28;;;24.55;;
64885;SDS011;51514;52.206;5.114;2023-02-05T00:29:56;50.20;;;24.80;;
64885;SDS011;51514;52.206;5.114;2023-02-05T00:32:22;42.95;;;23.60;;
64885;SDS011;51514;52.206;5.114;2023-02-05T00:34:47;39.60;;;22.50;;
64885;SDS011;51514;52.206;5.114;2023-02-05T00:37:12;36.90;;;23.65;;
64885;SDS011;51514;52.206;5.114;2023-02-05T00:39:38;37.90;;;22.05;;
64885;SDS011;51514;52.206;5.114;2023-02-05T00:42:03;37.03;;;22.88;;
64885;SDS011;51514;52.206;5.114;2023-02-05T00:44:28;39.78;;;23.20;;
64885;SDS011;51514;52.206;5.114;2023-02-05T00:46:54;41.25;;;23.83;;
64885;SDS011;51514;52.206;5.114;2023-02-05T00:49:19;43.13;;;23.10;;
64885;SDS011;51514;52.206;5.114;2023-02-05T00:51:44;37.33;;;22.90;;
64885;SDS011;51514;52.206;5.114;2023-02-05T00:54:09;38.38;;;22.45;;
64885;SDS011;51514;52.206;5.114;2023-02-05T00:56:35;39.80;;;21.20;;
64885;SDS011;51514;52.206;5.114;2023-02-05T00:59:00;34.33;;;23.23;;
64885;SDS011;51514;52.206;5.114;2023-02-05T01:01:26;40.90;;;23.45;;
64885;SDS011;51514;52.206;5.114;2023-02-05T01:03:52;39.58;;;22.75;;
64885;SDS011;51514;52.206;5.114;2023-02-05T01:06:17;39.95;;;23.15;;
64885;SDS011;51514;52.206;5.114;2023-02-05T01:08:42;36.45;;;22.58;;
64885;SDS011;51514;52.206;5.114;2023-02-05T01:11:08;34.03;;;21.17;;
64885;SDS011;51514;52.206;5.114;2023-02-05T01:13:35;37.58;;;22.77;;
64885;SDS011;51514;52.206;5.114;2023-02-05T01:16:01;36.20;;;21.08;;
64885;SDS011;51514;52.206;5.114;2023-02-05T01:18:26;33.42;;;21.95;;
64885;SDS011;51514;52.206;5.114;2023-02-05T01:20:52;36.78;;;20.60;;
64885;SDS011;51514;52.206;5.114;2023-02-05T01:23:18;39.85;;;22.77;;
64885;SDS011;51514;52.206;5.114;2023-02-05T01:25:43;40.55;;;21.88;;
64885;SDS011;51514;52.206;5.114;2023-02-05T01:28:08;37.28;;;21.77;;
64885;SDS011;51514;52.206;5.114;2023-02-05T01:30:34;37.75;;;21.48;;
64885;SDS011;51514;52.206;5.114;2023-02-05T01:33:00;38.28;;;22.13;;
64885;SDS011;51514;52.206;5.114;2023-02-05T01:35:26;37.45;;;21.48;;
64885;SDS011;51514;52.206;5.114;2023-02-05T01:37:51;38.40;;;20.77;;
64885;SDS011;51514;52.206;5.114;2023-02-05T01:40:17;35.50;;;21.20;;
64885;SDS011;51514;52.206;5.114;2023-02-05T01:42:43;37.67;;;21.42;;
64885;SDS011;51514;52.206;5.114;2023-02-05T01:47:53;38.20;;;20.15;;
64885;SDS011;51514;52.206;5.114;2023-02-05T01:50:33;40.83;;;19.77;;
64885;SDS011;51514;52.206;5.114;2023-02-05T01:53:00;34.55;;;19.33;;
64885;SDS011;51514;52.206;5.114;2023-02-05T01:55:29;35.25;;;18.83;;
64885;SDS011;51514;52.206;5.114;2023-02-05T01:57:55;31.67;;;17.98;;
64885;SDS011;51514;52.206;5.114;2023-02-05T02:00:24;32.70;;;18.00;;
64885;SDS011;51514;52.206;5.114;2023-02-05T02:02:50;37.33;;;19.05;;
64885;SDS011;51514;52.206;5.114;2023-02-05T02:05:17;30.67;;;17.27;;
64885;SDS011;51514;52.206;5.114;2023-02-05T02:07:43;39.00;;;18.73;;
64885;SDS011;51514;52.206;5.114;2023-02-05T02:10:09;32.58;;;18.33;;
64885;SDS011;51514;52.206;5.114;2023-02-05T02:12:37;29.15;;;17.30;;
64885;SDS011;51514;52.206;5.114;2023-02-05T02:15:06;31.65;;;17.60;;
64885;SDS011;51514;52.206;5.114;2023-02-05T02:17:35;28.15;;;16.38;;
64885;SDS011;51514;52.206;5.114;2023-02-05T02:20:05;27.67;;;16.23;;
64885;SDS011;51514;52.206;5.114;2023-02-05T02:33:24;22.92;;;14.10;;
64885;SDS011;51514;52.206;5.114;2023-02-05T02:36:05;26.63;;;14.43;;
64885;SDS011;51514;52.206;5.114;2023-02-05T02:38:37;29.73;;;13.23;;
64885;SDS011;51514;52.206;5.114;2023-02-05T02:41:16;23.77;;;12.80;;
64885;SDS011;51514;52.206;5.114;2023-02-05T02:46:31;22.35;;;12.40;;
64885;SDS011;51514;52.206;5.114;2023-02-05T02:49:05;24.38;;;11.05;;
64885;SDS011;51514;52.206;5.114;2023-02-05T02:51:33;17.65;;;10.93;;
64885;SDS011;51514;52.206;5.114;2023-02-05T02:54:04;18.67;;;11.43;;
64885;SDS011;51514;52.206;5.114;2023-02-05T02:56:31;18.08;;;9.15;;
64885;SDS011;51514;52.206;5.114;2023-02-05T03:01:30;16.63;;;8.52;;
64885;SDS011;51514;52.206;5.114;2023-02-05T03:04:06;14.00;;;8.32;;
64885;SDS011;51514;52.206;5.114;2023-02-05T03:06:35;12.32;;;7.55;;
64885;SDS011;51514;52.206;5.114;2023-02-05T03:09:11;13.73;;;6.88;;
64885;SDS011;51514;52.206;5.114;2023-02-05T03:11:42;15.93;;;7.20;;
64885;SDS011;51514;52.206;5.114;2023-02-05T03:14:07;16.35;;;7.60;;
64885;SDS011;51514;52.206;5.114;2023-02-05T03:16:33;12.75;;;6.90;;
64885;SDS011;51514;52.206;5.114;2023-02-05T03:18:58;15.65;;;7.22;;
64885;SDS011;51514;52.206;5.114;2023-02-05T03:21:24;13.38;;;5.93;;
64885;SDS011;51514;52.206;5.114;2023-02-05T03:23:54;11.68;;;6.13;;
64885;SDS011;51514;52.206;5.114;2023-02-05T03:26:30;9.88;;;5.88;;
64885;SDS011;51514;52.206;5.114;2023-02-05T03:28:59;9.88;;;5.35;;
64885;SDS011;51514;52.206;5.114;2023-02-05T03:31:31;12.77;;;5.30;;
64885;SDS011;51514;52.206;5.114;2023-02-05T03:36:45;7.90;;;5.45;;
64885;SDS011;51514;52.206;5.114;2023-02-05T03:49:47;11.80;;;5.72;;
64885;SDS011;51514;52.206;5.114;2023-02-05T03:52:17;10.25;;;5.10;;
64885;SDS011;51514;52.206;5.114;2023-02-05T03:55:10;9.50;;;5.68;;
64885;SDS011;51514;52.206;5.114;2023-02-05T03:58:01;10.13;;;5.00;;
64885;SDS011;51514;52.206;5.114;2023-02-05T04:00:28;12.25;;;5.65;;
64885;SDS011;51514;52.206;5.114;2023-02-05T04:02:55;12.32;;;6.32;;
64885;SDS011;51514;52.206;5.114;2023-02-05T04:05:20;11.73;;;5.60;;
64885;SDS011;51514;52.206;5.114;2023-02-05T04:07:47;13.40;;;6.28;;
64885;SDS011;51514;52.206;5.114;2023-02-05T04:10:16;14.38;;;5.88;;
64885;SDS011;51514;52.206;5.114;2023-02-05T04:12:42;12.48;;;6.47;;
64885;SDS011;51514;52.206;5.114;2023-02-05T04:15:07;10.65;;;6.20;;
64885;SDS011;51514;52.206;5.114;2023-02-05T04:17:33;15.35;;;7.40;;
64885;SDS011;51514;52.206;5.114;2023-02-05T04:19:59;12.65;;;7.03;;
64885;SDS011;51514;52.206;5.114;2023-02-05T04:22:24;14.68;;;6.85;;
64885;SDS011;51514;52.206;5.114;2023-02-05T04:24:50;17.02;;;7.95;;
64885;SDS011;51514;52.206;5.114;2023-02-05T04:27:15;9.80;;;6.93;;
64885;SDS011;51514;52.206;5.114;2023-02-05T04:29:40;15.00;;;6.88;;
64885;SDS011;51514;52.206;5.114;2023-02-05T04:32:06;15.13;;;8.55;;
64885;SDS011;51514;52.206;5.114;2023-02-05T04:34:31;12.48;;;6.80;;
64885;SDS011;51514;52.206;5.114;2023-02-05T04:36:56;14.63;;;7.15;;
64885;SDS011;51514;52.206;5.114;2023-02-05T04:39:22;18.65;;;7.50;;
64885;SDS011;51514;52.206;5.114;2023-02-05T04:41:47;15.02;;;7.20;;
64885;SDS011;51514;52.206;5.114;2023-02-05T04:44:12;12.18;;;7.05;;
64885;SDS011;51514;52.206;5.114;2023-02-05T04:46:38;11.80;;;6.43;;
64885;SDS011;51514;52.206;5.114;2023-02-05T04:49:03;9.77;;;6.13;;
64885;SDS011;51514;52.206;5.114;2023-02-05T04:51:28;8.27;;;4.90;;
64885;SDS011;51514;52.206;5.114;2023-02-05T04:53:54;11.57;;;5.28;;
64885;SDS011;51514;52.206;5.114;2023-02-05T04:56:19;6.82;;;4.32;;
64885;SDS011;51514;52.206;5.114;2023-02-05T04:58:44;7.45;;;4.13;;
64885;SDS011;51514;52.206;5.114;2023-02-05T05:01:11;5.38;;;3.35;;
64885;SDS011;51514;52.206;5.114;2023-02-05T05:03:38;8.15;;;4.30;;
64885;SDS011;51514;52.206;5.114;2023-02-05T05:06:04;5.82;;;3.05;;
64885;SDS011;51514;52.206;5.114;2023-02-05T05:08:30;5.78;;;2.88;;
64885;SDS011;51514;52.206;5.114;2023-02-05T05:10:56;4.05;;;2.88;;
64885;SDS011;51514;52.206;5.114;2023-02-05T05:13:21;7.30;;;3.20;;
64885;SDS011;51514;52.206;5.114;2023-02-05T05:15:53;10.40;;;3.17;;
64885;SDS011;51514;52.206;5.114;2023-02-05T05:18:20;7.80;;;3.78;;
64885;SDS011;51514;52.206;5.114;2023-02-05T05:20:45;16.10;;;3.72;;
64885;SDS011;51514;52.206;5.114;2023-02-05T05:23:10;15.45;;;3.83;;
64885;SDS011;51514;52.206;5.114;2023-02-05T05:25:42;13.73;;;3.55;;
64885;SDS011;51514;52.206;5.114;2023-02-05T05:28:09;19.05;;;3.38;;
64885;SDS011;51514;52.206;5.114;2023-02-05T05:30:36;11.43;;;3.47;;
64885;SDS011;51514;52.206;5.114;2023-02-05T05:33:03;12.73;;;3.60;;
64885;SDS011;51514;52.206;5.114;2023-02-05T05:35:28;15.35;;;3.05;;
64885;SDS011;51514;52.206;5.114;2023-02-05T05:37:55;11.18;;;2.67;;
64885;SDS011;51514;52.206;5.114;2023-02-05T05:40:21;13.25;;;3.30;;
64885;SDS011;51514;52.206;5.114;2023-02-05T05:43:07;12.60;;;3.22;;
64885;SDS011;51514;52.206;5.114;2023-02-05T05:45:54;13.80;;;2.80;;
64885;SDS011;51514;52.206;5.114;2023-02-05T05:48:19;11.90;;;3.05;;
64885;SDS011;51514;52.206;5.114;2023-02-05T05:50:44;10.07;;;2.80;;
64885;SDS011;51514;52.206;5.114;2023-02-05T05:53:10;11.80;;;3.00;;
64885;SDS011;51514;52.206;5.114;2023-02-05T05:55:35;11.75;;;3.88;;
64885;SDS011;51514;52.206;5.114;2023-02-05T05:58:01;13.85;;;2.90;;
64885;SDS011;51514;52.206;5.114;2023-02-05T06:00:26;9.63;;;2.83;;
64885;SDS011;51514;52.206;5.114;2023-02-05T06:02:51;16.50;;;2.85;;
64885;SDS011;51514;52.206;5.114;2023-02-05T06:05:17;13.43;;;3.05;;
64885;SDS011;51514;52.206;5.114;2023-02-05T06:07:42;16.38;;;2.90;;
64885;SDS011;51514;52.206;5.114;2023-02-05T06:10:07;11.13;;;2.53;;
64885;SDS011;51514;52.206;5.114;2023-02-05T06:12:33;10.13;;;2.55;;
64885;SDS011;51514;52.206;5.114;2023-02-05T06:14:58;7.10;;;3.03;;
64885;SDS011;51514;52.206;5.114;2023-02-05T06:17:24;17.45;;;3.25;;
64885;SDS011;51514;52.206;5.114;2023-02-05T06:19:49;10.45;;;2.60;;
64885;SDS011;51514;52.206;5.114;2023-02-05T06:22:14;11.20;;;4.00;;
64885;SDS011;51514;52.206;5.114;2023-02-05T06:24:40;13.93;;;2.63;;
64885;SDS011;51514;52.206;5.114;2023-02-05T06:27:05;11.65;;;3.35;;
64885;SDS011;51514;52.206;5.114;2023-02-05T06:29:30;9.40;;;2.88;;
64885;SDS011;51514;52.206;5.114;2023-02-05T06:31:55;15.45;;;4.32;;
64885;SDS011;51514;52.206;5.114;2023-02-05T06:34:21;18.73;;;3.53;;
64885;SDS011;51514;52.206;5.114;2023-02-05T06:36:46;14.60;;;2.75;;
64885;SDS011;51514;52.206;5.114;2023-02-05T06:39:12;8.70;;;3.05;;
64885;SDS011;51514;52.206;5.114;2023-02-05T06:41:38;11.65;;;2.92;;
64885;SDS011;51514;52.206;5.114;2023-02-05T06:44:04;15.13;;;3.85;;
64885;SDS011;51514;52.206;5.114;2023-02-05T06:46:29;22.27;;;3.65;;
64885;SDS011;51514;52.206;5.114;2023-02-05T06:48:54;16.25;;;5.13;;
64885;SDS011;51514;52.206;5.114;2023-02-05T06:51:20;14.65;;;3.80;;
64885;SDS011;51514;52.206;5.114;2023-02-05T06:53:45;17.05;;;4.43;;
64885;SDS011;51514;52.206;5.114;2023-02-05T06:56:10;14.75;;;5.00;;
64885;SDS011;51514;52.206;5.114;2023-02-05T06:58:36;11.65;;;4.13;;
64885;SDS011;51514;52.206;5.114;2023-02-05T07:01:01;14.50;;;4.47;;
64885;SDS011;51514;52.206;5.114;2023-02-05T07:03:27;19.23;;;3.55;;
64885;SDS011;51514;52.206;5.114;2023-02-05T07:05:52;14.35;;;3.70;;
64885;SDS011;51514;52.206;5.114;2023-02-05T07:08:17;24.55;;;4.18;;
64885;SDS011;51514;52.206;5.114;2023-02-05T07:10:43;14.63;;;3.53;;
64885;SDS011;51514;52.206;5.114;2023-02-05T07:13:08;15.98;;;3.25;;
64885;SDS011;51514;52.206;5.114;2023-02-05T07:15:34;19.15;;;3.78;;
64885;SDS011;51514;52.206;5.114;2023-02-05T07:18:00;17.38;;;4.15;;
64885;SDS011;51514;52.206;5.114;2023-02-05T07:20:26;22.88;;;4.35;;
64885;SDS011;51514;52.206;5.114;2023-02-05T07:22:51;24.13;;;7.95;;
64885;SDS011;51514;52.206;5.114;2023-02-05T07:25:16;19.95;;;3.60;;
64885;SDS011;51514;52.206;5.114;2023-02-05T07:27:42;16.65;;;3.85;;
64885;SDS011;51514;52.206;5.114;2023-02-05T07:30:07;17.48;;;4.38;;
64885;SDS011;51514;52.206;5.114;2023-02-05T07:32:33;21.42;;;4.50;;
64885;SDS011;51514;52.206;5.114;2023-02-05T07:34:58;21.75;;;4.63;;
64885;SDS011;51514;52.206;5.114;2023-02-05T07:37:24;17.42;;;4.13;;
64885;SDS011;51514;52.206;5.114;2023-02-05T07:39:49;18.15;;;3.78;;
64885;SDS011;51514;52.206;5.114;2023-02-05T07:42:14;13.88;;;3.45;;
64885;SDS011;51514;52.206;5.114;2023-02-05T07:44:40;16.55;;;4.13;;
64885;SDS011;51514;52.206;5.114;2023-02-05T07:47:05;21.25;;;5.65;;
64885;SDS011;51514;52.206;5.114;2023-02-05T07:49:30;16.35;;;3.38;;
64885;SDS011;51514;52.206;5.114;2023-02-05T07:51:56;15.05;;;4.65;;
64885;SDS011;51514;52.206;5.114;2023-02-05T07:54:21;19.67;;;4.35;;
64885;SDS011;51514;52.206;5.114;2023-02-05T07:56:46;20.83;;;5.18;;
64885;SDS011;51514;52.206;5.114;2023-02-05T07:59:12;21.33;;;4.05;;
64885;SDS011;51514;52.206;5.114;2023-02-05T08:01:37;19.48;;;3.83;;
64885;SDS011;51514;52.206;5.114;2023-02-05T08:04:02;18.08;;;6.32;;
64885;SDS011;51514;52.206;5.114;2023-02-05T08:06:28;18.40;;;5.15;;
64885;SDS011;51514;52.206;5.114;2023-02-05T08:08:53;20.67;;;4.55;;
64885;SDS011;51514;52.206;5.114;2023-02-05T08:11:20;23.17;;;5.45;;
64885;SDS011;51514;52.206;5.114;2023-02-05T08:13:46;31.73;;;5.40;;
64885;SDS011;51514;52.206;5.114;2023-02-05T08:16:11;23.88;;;5.38;;
64885;SDS011;51514;52.206;5.114;2023-02-05T08:18:39;24.58;;;6.47;;
64885;SDS011;51514;52.206;5.114;2023-02-05T08:21:04;26.55;;;4.97;;
64885;SDS011;51514;52.206;5.114;2023-02-05T08:23:30;27.85;;;5.97;;
64885;SDS011;51514;52.206;5.114;2023-02-05T08:25:56;24.80;;;5.20;;
64885;SDS011;51514;52.206;5.114;2023-02-05T08:28:22;26.85;;;6.13;;
64885;SDS011;51514;52.206;5.114;2023-02-05T08:30:49;27.80;;;6.30;;
64885;SDS011;51514;52.206;5.114;2023-02-05T08:33:14;34.63;;;7.18;;
64885;SDS011;51514;52.206;5.114;2023-02-05T08:35:40;26.55;;;6.65;;
64885;SDS011;51514;52.206;5.114;2023-02-05T08:38:06;18.52;;;5.20;;
64885;SDS011;51514;52.206;5.114;2023-02-05T08:40:31;31.13;;;6.15;;
64885;SDS011;51514;52.206;5.114;2023-02-05T08:42:57;37.10;;;8.82;;
64885;SDS011;51514;52.206;5.114;2023-02-05T08:45:24;26.52;;;5.85;;
64885;SDS011;51514;52.206;5.114;2023-02-05T08:47:50;35.60;;;6.78;;
64885;SDS011;51514;52.206;5.114;2023-02-05T08:50:16;32.17;;;7.25;;
64885;SDS011;51514;52.206;5.114;2023-02-05T08:52:42;25.80;;;5.80;;
64885;SDS011;51514;52.206;5.114;2023-02-05T08:55:07;38.92;;;8.95;;
64885;SDS011;51514;52.206;5.114;2023-02-05T08:57:32;21.60;;;7.70;;
64885;SDS011;51514;52.206;5.114;2023-02-05T08:59:58;30.73;;;5.47;;
64885;SDS011;51514;52.206;5.114;2023-02-05T09:02:24;24.65;;;6.00;;
64885;SDS011;51514;52.206;5.114;2023-02-05T09:04:49;21.52;;;6.63;;
64885;SDS011;51514;52.206;5.114;2023-02-05T09:07:14;35.25;;;6.82;;
64885;SDS011;51514;52.206;5.114;2023-02-05T09:09:40;36.15;;;7.00;;
64885;SDS011;51514;52.206;5.114;2023-02-05T09:12:05;36.00;;;6.80;;
64885;SDS011;51514;52.206;5.114;2023-02-05T09:14:31;27.08;;;6.75;;
64885;SDS011;51514;52.206;5.114;2023-02-05T09:17:00;31.05;;;6.65;;
64885;SDS011;51514;52.206;5.114;2023-02-05T09:19:27;29.75;;;5.70;;
64885;SDS011;51514;52.206;5.114;2023-02-05T09:21:54;34.40;;;6.30;;
64885;SDS011;51514;52.206;5.114;2023-02-05T09:24:19;33.05;;;7.10;;
64885;SDS011;51514;52.206;5.114;2023-02-05T09:26:45;27.17;;;5.65;;
64885;SDS011;51514;52.206;5.114;2023-02-05T09:29:10;25.88;;;5.38;;
64885;SDS011;51514;52.206;5.114;2023-02-05T09:31:35;27.60;;;6.25;;
64885;SDS011;51514;52.206;5.114;2023-02-05T09:34:01;29.67;;;6.03;;
64885;SDS011;51514;52.206;5.114;2023-02-05T09:36:27;31.70;;;6.72;;
64885;SDS011;51514;52.206;5.114;2023-02-05T09:38:52;25.67;;;6.10;;
64885;SDS011;51514;52.206;5.114;2023-02-05T09:47:38;30.25;;;6.97;;
64885;SDS011;51514;52.206;5.114;2023-02-05T09:52:46;19.60;;;5.10;;
64885;SDS011;51514;52.206;5.114;2023-02-05T09:55:25;31.38;;;7.65;;
64885;SDS011;51514;52.206;5.114;2023-02-05T09:57:53;25.58;;;6.05;;
64885;SDS011;51514;52.206;5.114;2023-02-05T10:00:26;29.70;;;6.13;;
64885;SDS011;51514;52.206;5.114;2023-02-05T10:05:34;31.25;;;6.10;;
64885;SDS011;51514;52.206;5.114;2023-02-05T10:08:30;25.75;;;6.05;;
64885;SDS011;51514;52.206;5.114;2023-02-05T10:11:00;30.33;;;5.47;;
64885;SDS011;51514;52.206;5.114;2023-02-05T10:16:07;29.15;;;6.90;;
64885;SDS011;51514;52.206;5.114;2023-02-05T10:19:09;26.63;;;6.45;;
64885;SDS011;51514;52.206;5.114;2023-02-05T10:21:49;31.20;;;6.53;;
64885;SDS011;51514;52.206;5.114;2023-02-05T10:28:02;23.15;;;5.43;;
64885;SDS011;51514;52.206;5.114;2023-02-05T10:30:49;29.67;;;6.18;;
64885;SDS011;51514;52.206;5.114;2023-02-05T10:36:00;28.48;;;6.45;;
64885;SDS011;51514;52.206;5.114;2023-02-05T10:38:29;30.83;;;6.95;;
64885;SDS011;51514;52.206;5.114;2023-02-05T10:41:04;35.60;;;6.25;;
64885;SDS011;51514;52.206;5.114;2023-02-05T10:43:39;26.38;;;5.97;;
64885;SDS011;51514;52.206;5.114;2023-02-05T10:46:14;26.17;;;6.25;;
64885;SDS011;51514;52.206;5.114;2023-02-05T10:48:44;28.33;;;5.95;;
64885;SDS011;51514;52.206;5.114;2023-02-05T10:51:11;24.77;;;6.45;;
64885;SDS011;51514;52.206;5.114;2023-02-05T10:53:40;21.17;;;5.60;;
64885;SDS011;51514;52.206;5.114;2023-02-05T10:56:06;24.02;;;6.15;;
64885;SDS011;51514;52.206;5.114;2023-02-05T11:00:57;28.55;;;6.13;;
64885;SDS011;51514;52.206;5.114;2023-02-05T11:03:23;31.50;;;5.82;;
64885;SDS011;51514;52.206;5.114;2023-02-05T11:05:49;29.60;;;6.00;;
64885;SDS011;51514;52.206;5.114;2023-02-05T11:08:31;27.17;;;5.90;;
64885;SDS011;51514;52.206;5.114;2023-02-05T11:10:58;27.98;;;5.75;;
64885;SDS011;51514;52.206;5.114;2023-02-05T11:13:24;28.60;;;5.53;;
64885;SDS011;51514;52.206;5.114;2023-02-05T11:15:56;24.45;;;5.45;;
64885;SDS011;51514;52.206;5.114;2023-02-05T11:18:40;26.85;;;5.75;;
64885;SDS011;51514;52.206;5.114;2023-02-05T11:21:08;27.77;;;5.90;;
64885;SDS011;51514;52.206;5.114;2023-02-05T11:23:34;26.35;;;7.00;;
64885;SDS011;51514;52.206;5.114;2023-02-05T11:26:08;31.88;;;6.28;;
64885;SDS011;51514;52.206;5.114;2023-02-05T11:28:41;20.25;;;5.30;;
64885;SDS011;51514;52.206;5.114;2023-02-05T11:31:23;20.92;;;5.85;;
64885;SDS011;51514;52.206;5.114;2023-02-05T11:36:33;28.33;;;5.35;;
64885;SDS011;51514;52.206;5.114;2023-02-05T11:38:59;27.10;;;6.85;;
64885;SDS011;51514;52.206;5.114;2023-02-05T11:43:55;18.65;;;6.13;;
64885;SDS011;51514;52.206;5.114;2023-02-05T11:46:25;21.35;;;5.60;;
64885;SDS011;51514;52.206;5.114;2023-02-05T11:48:57;23.40;;;5.47;;
64885;SDS011;51514;52.206;5.114;2023-02-05T11:51:43;23.95;;;5.57;;
64885;SDS011;51514;52.206;5.114;2023-02-05T11:54:17;25.20;;;5.25;;
64885;SDS011;51514;52.206;5.114;2023-02-05T12:04:54;28.08;;;6.30;;
64885;SDS011;51514;52.206;5.114;2023-02-05T12:07:21;21.52;;;6.50;;
64885;SDS011;51514;52.206;5.114;2023-02-05T12:09:50;24.60;;;5.57;;
64885;SDS011;51514;52.206;5.114;2023-02-05T12:12:28;25.30;;;5.07;;
64885;SDS011;51514;52.206;5.114;2023-02-05T12:17:57;22.42;;;6.00;;
64885;SDS011;51514;52.206;5.114;2023-02-05T12:20:28;24.23;;;5.05;;
64885;SDS011;51514;52.206;5.114;2023-02-05T12:23:20;19.40;;;6.18;;
64885;SDS011;51514;52.206;5.114;2023-02-05T12:31:17;27.42;;;6.85;;
64885;SDS011;51514;52.206;5.114;2023-02-05T12:49:47;20.58;;;4.50;;
64885;SDS011;51514;52.206;5.114;2023-02-05T12:57:53;29.92;;;5.97;;
64885;SDS011;51514;52.206;5.114;2023-02-05T13:00:24;26.60;;;5.68;;
64885;SDS011;51514;52.206;5.114;2023-02-05T13:03:16;21.70;;;5.55;;
64885;SDS011;51514;52.206;5.114;2023-02-05T13:05:55;23.05;;;5.63;;
64885;SDS011;51514;52.206;5.114;2023-02-05T13:11:26;22.30;;;5.95;;
64885;SDS011;51514;52.206;5.114;2023-02-05T13:13:59;23.80;;;6.13;;
64885;SDS011;51514;52.206;5.114;2023-02-05T13:16:35;25.17;;;5.65;;
64885;SDS011;51514;52.206;5.114;2023-02-05T13:21:51;25.38;;;6.00;;
64885;SDS011;51514;52.206;5.114;2023-02-05T13:24:39;24.83;;;6.50;;
64885;SDS011;51514;52.206;5.114;2023-02-05T13:27:30;26.70;;;6.95;;
64885;SDS011;51514;52.206;5.114;2023-02-05T13:30:38;25.60;;;6.60;;
64885;SDS011;51514;52.206;5.114;2023-02-05T13:33:05;27.73;;;6.38;;
64885;SDS011;51514;52.206;5.114;2023-02-05T13:35:33;30.27;;;6.38;;
64885;SDS011;51514;52.206;5.114;2023-02-05T13:54:27;26.25;;;5.80;;
64885;SDS011;51514;52.206;5.114;2023-02-05T13:57:06;24.95;;;6.20;;
64885;SDS011;51514;52.206;5.114;2023-02-05T13:59:37;31.77;;;7.10;;
64885;SDS011;51514;52.206;5.114;2023-02-05T14:02:28;31.75;;;6.15;;
64885;SDS011;51514;52.206;5.114;2023-02-05T14:05:01;28.25;;;7.70;;
64885;SDS011;51514;52.206;5.114;2023-02-05T14:07:30;29.88;;;6.75;;
64885;SDS011;51514;52.206;5.114;2023-02-05T14:09:59;27.05;;;7.30;;
64885;SDS011;51514;52.206;5.114;2023-02-05T14:12:35;33.30;;;6.63;;
64885;SDS011;51514;52.206;5.114;2023-02-05T14:22:50;33.05;;;6.43;;
64885;SDS011;51514;52.206;5.114;2023-02-05T14:32:56;30.63;;;6.63;;
64885;SDS011;51514;52.206;5.114;2023-02-05T14:35:31;24.98;;;6.53;;
64885;SDS011;51514;52.206;5.114;2023-02-05T14:38:49;33.42;;;7.18;;
64885;SDS011;51514;52.206;5.114;2023-02-05T14:40:59;34.63;;;7.35;;
64885;SDS011;51514;52.206;5.114;2023-02-05T14:43:38;37.60;;;8.15;;
64885;SDS011;51514;52.206;5.114;2023-02-05T14:48:58;28.35;;;8.48;;
64885;SDS011;51514;52.206;5.114;2023-02-05T14:51:31;40.00;;;7.60;;
64885;SDS011;51514;52.206;5.114;2023-02-05T14:54:02;35.53;;;6.50;;
64885;SDS011;51514;52.206;5.114;2023-02-05T14:56:36;31.48;;;7.63;;
64885;SDS011;51514;52.206;5.114;2023-02-05T15:01:54;29.83;;;7.13;;
64885;SDS011;51514;52.206;5.114;2023-02-05T15:04:26;33.35;;;8.77;;
64885;SDS011;51514;52.206;5.114;2023-02-05T15:07:13;35.70;;;7.35;;
64885;SDS011;51514;52.206;5.114;2023-02-05T15:09:49;44.15;;;8.55;;
64885;SDS011;51514;52.206;5.114;2023-02-05T15:15:29;31.30;;;6.40;;
64885;SDS011;51514;52.206;5.114;2023-02-05T15:18:09;33.97;;;6.88;;
64885;SDS011;51514;52.206;5.114;2023-02-05T15:20:52;27.45;;;7.57;;
64885;SDS011;51514;52.206;5.114;2023-02-05T15:31:32;37.83;;;7.68;;
64885;SDS011;51514;52.206;5.114;2023-02-05T15:34:13;40.22;;;7.57;;
64885;SDS011;51514;52.206;5.114;2023-02-05T15:36:52;35.28;;;7.72;;
64885;SDS011;51514;52.206;5.114;2023-02-05T15:42:22;31.30;;;6.68;;
64885;SDS011;51514;52.206;5.114;2023-02-05T15:44:56;32.95;;;7.28;;
64885;SDS011;51514;52.206;5.114;2023-02-05T15:47:22;37.05;;;8.25;;
64885;SDS011;51514;52.206;5.114;2023-02-05T15:49:51;50.60;;;8.55;;
64885;SDS011;51514;52.206;5.114;2023-02-05T15:52:24;32.53;;;7.05;;
64885;SDS011;51514;52.206;5.114;2023-02-05T15:54:53;36.95;;;9.73;;
64885;SDS011;51514;52.206;5.114;2023-02-05T15:57:28;45.00;;;9.18;;
64885;SDS011;51514;52.206;5.114;2023-02-05T15:59:55;33.03;;;6.35;;
64885;SDS011;51514;52.206;5.114;2023-02-05T16:02:23;29.17;;;7.72;;
64885;SDS011;51514;52.206;5.114;2023-02-05T16:07:34;41.38;;;7.45;;
64885;SDS011;51514;52.206;5.114;2023-02-05T16:10:15;39.03;;;7.90;;
64885;SDS011;51514;52.206;5.114;2023-02-05T16:13:01;35.13;;;7.45;;
64885;SDS011;51514;52.206;5.114;2023-02-05T16:18:54;35.25;;;8.07;;
64885;SDS011;51514;52.206;5.114;2023-02-05T16:21:07;28.33;;;7.35;;
64885;SDS011;51514;52.206;5.114;2023-02-05T16:23:45;36.05;;;9.05;;
64885;SDS011;51514;52.206;5.114;2023-02-05T16:26:33;32.38;;;6.88;;
64885;SDS011;51514;52.206;5.114;2023-02-05T16:29:04;34.25;;;7.78;;
64885;SDS011;51514;52.206;5.114;2023-02-05T16:31:31;31.83;;;7.63;;
64885;SDS011;51514;52.206;5.114;2023-02-05T16:36:35;32.13;;;6.63;;
64885;SDS011;51514;52.206;5.114;2023-02-05T16:39:04;46.03;;;9.48;;
64885;SDS011;51514;52.206;5.114;2023-02-05T16:41:39;44.08;;;8.07;;
64885;SDS011;51514;52.206;5.114;2023-02-05T16:44:08;35.72;;;7.63;;
64885;SDS011;51514;52.206;5.114;2023-02-05T16:47:03;41.53;;;7.47;;
64885;SDS011;51514;52.206;5.114;2023-02-05T16:49:30;28.70;;;8.52;;
64885;SDS011;51514;52.206;5.114;2023-02-05T16:51:57;28.77;;;7.97;;
64885;SDS011;51514;52.206;5.114;2023-02-05T16:54:26;41.90;;;8.43;;
64885;SDS011;51514;52.206;5.114;2023-02-05T16:56:56;38.50;;;7.55;;
64885;SDS011;51514;52.206;5.114;2023-02-05T16:59:30;36.40;;;9.75;;
64885;SDS011;51514;52.206;5.114;2023-02-05T17:01:59;38.55;;;9.18;;
64885;SDS011;51514;52.206;5.114;2023-02-05T17:04:35;41.45;;;8.27;;
64885;SDS011;51514;52.206;5.114;2023-02-05T17:07:03;27.10;;;7.03;;
64885;SDS011;51514;52.206;5.114;2023-02-05T17:09:39;33.25;;;8.65;;
64885;SDS011;51514;52.206;5.114;2023-02-05T17:15:02;28.27;;;7.07;;
64885;SDS011;51514;52.206;5.114;2023-02-05T17:28:16;37.90;;;7.93;;
64885;SDS011;51514;52.206;5.114;2023-02-05T17:30:43;35.58;;;9.10;;
64885;SDS011;51514;52.206;5.114;2023-02-05T17:33:20;37.00;;;8.07;;
64885;SDS011;51514;52.206;5.114;2023-02-05T17:35:48;34.05;;;8.75;;
64885;SDS011;51514;52.206;5.114;2023-02-05T17:38:14;31.08;;;7.63;;
64885;SDS011;51514;52.206;5.114;2023-02-05T17:40:41;30.30;;;8.55;;
64885;SDS011;51514;52.206;5.114;2023-02-05T17:43:07;38.30;;;9.00;;